createdAt,value
2017-08-03T00:00:31.993Z,18.40
2017-08-03T00:02:59.536Z,18.40
2017-08-03T00:05:27.038Z,18.40
2017-08-03T00:07:54.629Z,18.30
2017-08-03T00:10:22.133Z,18.40
2017-08-03T00:12:50.409Z,18.40
2017-08-03T00:15:17.905Z,18.40
2017-08-03T00:17:45.409Z,18.40
2017-08-03T00:20:12.898Z,18.40
2017-08-03T00:22:40.420Z,18.50
2017-08-03T00:25:07.964Z,18.50
2017-08-03T00:27:35.484Z,18.60
2017-08-03T00:30:03.037Z,18.60
2017-08-03T00:32:30.529Z,18.50
2017-08-03T00:34:58.042Z,18.50
2017-08-03T00:37:25.533Z,18.50
2017-08-03T00:39:53.826Z,18.60
2017-08-03T00:42:21.386Z,18.60
2017-08-03T00:44:48.904Z,18.50
2017-08-03T00:47:16.452Z,18.50
2017-08-03T00:49:43.996Z,18.60
2017-08-03T00:52:11.542Z,18.60
2017-08-03T00:54:39.072Z,18.60
2017-08-03T00:57:06.629Z,18.60
2017-08-03T00:59:34.173Z,18.60
2017-08-03T01:02:01.681Z,18.60
2017-08-03T01:04:29.169Z,18.60
2017-08-03T01:06:56.677Z,18.70
2017-08-03T01:09:24.964Z,18.70
2017-08-03T01:11:52.504Z,18.60
2017-08-03T01:14:20.055Z,18.70
2017-08-03T01:16:47.561Z,18.70
2017-08-03T01:19:15.825Z,18.60
2017-08-03T01:21:44.113Z,18.70
2017-08-03T01:24:11.605Z,18.70
2017-08-03T01:26:39.118Z,18.70
2017-08-03T01:29:06.641Z,18.70
2017-08-03T01:31:34.148Z,18.60
2017-08-03T01:34:01.731Z,18.60
2017-08-03T01:36:29.237Z,18.60
2017-08-03T01:38:56.820Z,18.60
2017-08-03T01:41:24.308Z,18.60
2017-08-03T01:43:51.829Z,18.60
2017-08-03T01:46:19.317Z,18.60
2017-08-03T01:48:47.628Z,18.60
2017-08-03T01:51:15.152Z,18.60
2017-08-03T01:53:42.669Z,18.60
2017-08-03T01:56:11.008Z,18.60
2017-08-03T01:58:38.606Z,18.60
2017-08-03T02:01:06.148Z,18.60
2017-08-03T02:03:33.657Z,18.70
2017-08-03T02:06:01.278Z,18.70
2017-08-03T02:08:28.880Z,18.70
2017-08-03T02:10:56.573Z,18.70
2017-08-03T02:13:24.074Z,18.70
2017-08-03T02:15:51.745Z,18.70
2017-08-03T02:18:19.269Z,18.70
2017-08-03T02:20:46.777Z,18.70
2017-08-03T02:23:14.355Z,18.60
2017-08-03T02:25:41.902Z,18.60
2017-08-03T02:28:09.442Z,18.60
2017-08-03T02:30:36.993Z,18.60
2017-08-03T02:33:04.553Z,18.60
2017-08-03T02:35:32.073Z,18.60
2017-08-03T02:37:59.612Z,18.60
2017-08-03T02:40:27.160Z,18.60
2017-08-03T02:42:54.660Z,18.70
2017-08-03T02:45:22.253Z,18.70
2017-08-03T02:47:49.746Z,18.60
2017-08-03T02:50:17.236Z,18.60
2017-08-03T02:52:44.736Z,18.60
2017-08-03T02:55:12.326Z,18.60
2017-08-03T02:57:39.841Z,18.60
2017-08-03T03:00:08.134Z,18.60
2017-08-03T03:02:35.681Z,18.60
2017-08-03T03:05:03.222Z,18.60
2017-08-03T03:07:30.758Z,18.60
2017-08-03T03:09:58.301Z,18.60
2017-08-03T03:12:25.854Z,18.70
2017-08-03T03:14:53.406Z,18.60
2017-08-03T03:17:20.934Z,18.70
2017-08-03T03:19:48.483Z,18.70
2017-08-03T03:22:16.008Z,18.70
2017-08-03T03:24:43.568Z,18.70
2017-08-03T03:27:11.109Z,18.70
2017-08-03T03:29:38.618Z,18.60
2017-08-03T03:32:06.197Z,18.60
2017-08-03T03:34:33.741Z,18.60
2017-08-03T03:37:01.284Z,18.70
2017-08-03T03:39:28.792Z,18.70
2017-08-03T03:41:56.294Z,18.70
2017-08-03T03:44:23.805Z,18.70
2017-08-03T03:46:51.370Z,18.70
2017-08-03T03:49:18.882Z,18.80
2017-08-03T03:51:47.269Z,18.80
2017-08-03T03:54:14.822Z,18.80
2017-08-03T03:56:42.353Z,18.90
2017-08-03T03:59:09.899Z,18.90
2017-08-03T04:01:37.392Z,18.90
2017-08-03T04:04:04.984Z,18.90
2017-08-03T04:06:32.476Z,18.90
2017-08-03T04:09:00.073Z,18.90
2017-08-03T04:11:27.621Z,18.80
2017-08-03T04:13:55.156Z,18.90
2017-08-03T04:16:22.717Z,18.80
2017-08-03T04:18:50.260Z,18.80
2017-08-03T04:21:17.873Z,18.80
2017-08-03T04:23:46.157Z,18.80
2017-08-03T04:26:13.700Z,18.80
2017-08-03T04:28:41.245Z,18.80
2017-08-03T04:31:08.754Z,18.80
2017-08-03T04:33:36.241Z,18.80
2017-08-03T04:36:03.745Z,18.80
2017-08-03T04:38:32.117Z,18.80
2017-08-03T04:41:00.492Z,18.70
2017-08-03T04:43:28.042Z,18.70
2017-08-03T04:45:55.584Z,18.70
2017-08-03T04:48:23.157Z,18.70
2017-08-03T04:50:50.777Z,18.70
2017-08-03T04:53:18.299Z,18.70
2017-08-03T04:55:46.594Z,18.70
2017-08-03T04:58:14.129Z,18.70
2017-08-03T05:00:41.616Z,18.70
2017-08-03T05:03:09.122Z,18.70
2017-08-03T05:05:37.229Z,18.70
2017-08-03T05:08:04.805Z,18.70
2017-08-03T05:10:32.292Z,18.70
2017-08-03T05:12:59.793Z,18.70
2017-08-03T05:15:27.345Z,18.70
2017-08-03T05:17:54.901Z,18.70
2017-08-03T05:20:22.457Z,18.70
2017-08-03T05:22:50.082Z,18.70
2017-08-03T05:25:17.589Z,18.70
2017-08-03T05:27:45.091Z,18.70
2017-08-03T05:30:12.609Z,18.70
2017-08-03T05:32:40.100Z,18.70
2017-08-03T05:35:07.697Z,18.70
2017-08-03T05:37:35.241Z,18.70
2017-08-03T05:40:02.783Z,18.70
2017-08-03T05:42:30.323Z,18.70
2017-08-03T05:44:57.824Z,18.70
2017-08-03T05:47:25.313Z,18.80
2017-08-03T05:49:52.836Z,18.80
2017-08-03T05:52:21.096Z,18.90
2017-08-03T05:54:49.377Z,18.80
2017-08-03T05:57:16.882Z,18.90
2017-08-03T05:59:44.465Z,18.90
2017-08-03T06:02:11.944Z,18.90
2017-08-03T06:04:39.556Z,18.90
2017-08-03T06:07:07.045Z,18.90
2017-08-03T06:09:34.645Z,18.90
2017-08-03T06:12:02.128Z,19.00
2017-08-03T06:14:29.648Z,19.00
2017-08-03T06:16:57.199Z,19.00
2017-08-03T06:19:24.692Z,19.10
2017-08-03T06:21:52.978Z,19.20
2017-08-03T06:24:20.500Z,19.20
2017-08-03T06:26:48.784Z,19.40
2017-08-03T06:29:16.328Z,19.30
2017-08-03T06:31:43.884Z,19.50
2017-08-03T06:34:11.417Z,19.60
2017-08-03T06:36:38.964Z,19.70
2017-08-03T06:39:06.505Z,19.70
2017-08-03T06:41:34.047Z,19.80
2017-08-03T06:44:01.543Z,19.80
2017-08-03T06:46:29.132Z,19.90
2017-08-03T06:48:56.684Z,19.90
2017-08-03T06:51:24.340Z,19.90
2017-08-03T06:53:51.971Z,20.00
2017-08-03T06:56:19.527Z,20.00
2017-08-03T06:58:47.062Z,20.10
2017-08-03T07:01:14.605Z,20.20
2017-08-03T07:03:42.174Z,20.30
2017-08-03T07:06:09.673Z,20.40
2017-08-03T07:08:37.945Z,21.10
2017-08-03T07:11:05.437Z,21.00
2017-08-03T07:13:33.065Z,21.20
2017-08-03T07:16:00.556Z,21.20
2017-08-03T07:18:28.844Z,21.10
2017-08-03T07:20:56.342Z,21.00
2017-08-03T07:23:23.866Z,21.00
2017-08-03T07:25:51.369Z,21.10
2017-08-03T07:28:18.922Z,21.10
2017-08-03T07:30:46.492Z,21.10
2017-08-03T07:33:14.009Z,21.20
2017-08-03T07:35:41.548Z,21.10
2017-08-03T07:38:09.071Z,21.20
2017-08-03T07:40:37.361Z,21.20
2017-08-03T07:43:04.892Z,21.10
2017-08-03T07:45:32.548Z,21.10
2017-08-03T07:48:00.122Z,21.00
2017-08-03T07:50:27.624Z,21.00
2017-08-03T07:52:55.192Z,20.90
2017-08-03T07:55:22.792Z,20.90
2017-08-03T07:57:51.089Z,20.90
2017-08-03T08:00:18.609Z,20.90
2017-08-03T08:02:46.897Z,20.80
2017-08-03T08:05:14.461Z,20.80
2017-08-03T08:07:41.976Z,20.80
2017-08-03T08:10:09.472Z,20.70
2017-08-03T08:12:36.953Z,20.70
2017-08-03T08:15:04.436Z,20.60
2017-08-03T08:17:31.950Z,20.60
2017-08-03T08:19:59.435Z,20.60
2017-08-03T08:22:26.936Z,20.70
2017-08-03T08:24:54.455Z,20.90
2017-08-03T08:27:23.062Z,21.00
2017-08-03T08:29:51.549Z,21.00
2017-08-03T08:32:19.057Z,21.10
2017-08-03T08:34:46.555Z,21.10
2017-08-03T08:37:14.061Z,21.10
2017-08-03T08:39:41.585Z,21.10
2017-08-03T08:42:09.086Z,21.20
2017-08-03T08:44:36.673Z,21.30
2017-08-03T08:47:04.218Z,21.30
2017-08-03T08:49:31.707Z,21.40
2017-08-03T08:51:59.301Z,21.40
2017-08-03T08:54:26.881Z,21.30
2017-08-03T08:56:55.091Z,21.40
2017-08-03T08:59:22.669Z,21.50
2017-08-03T09:01:51.432Z,21.50
2017-08-03T09:04:18.928Z,21.50
2017-08-03T09:06:46.408Z,21.40
2017-08-03T09:09:13.907Z,21.10
2017-08-03T09:11:41.409Z,21.00
2017-08-03T09:14:08.953Z,21.10
2017-08-03T09:16:36.445Z,20.60
2017-08-03T09:19:03.944Z,20.30
2017-08-03T09:21:31.425Z,20.20
2017-08-03T09:23:58.925Z,20.20
2017-08-03T09:26:26.425Z,20.30
2017-08-03T09:28:54.824Z,21.20
2017-08-03T09:31:22.378Z,21.10
2017-08-03T09:33:49.945Z,22.00
2017-08-03T09:36:17.479Z,22.50
2017-08-03T09:38:44.979Z,23.40
2017-08-03T09:41:13.241Z,23.40
2017-08-03T09:43:41.497Z,23.00
2017-08-03T09:46:09.066Z,23.00
2017-08-03T09:48:36.810Z,22.70
2017-08-03T09:51:04.461Z,22.50
2017-08-03T09:53:31.996Z,22.90
2017-08-03T09:55:59.540Z,23.00
2017-08-03T09:58:27.357Z,23.40
2017-08-03T10:00:54.873Z,23.70
2017-08-03T10:03:22.364Z,24.20
2017-08-03T10:05:50.221Z,23.90
2017-08-03T10:08:17.780Z,23.90
2017-08-03T10:10:45.260Z,24.50
2017-08-03T10:13:12.761Z,24.60
2017-08-03T10:15:40.317Z,24.30
2017-08-03T10:18:07.871Z,23.80
2017-08-03T10:20:35.387Z,23.30
2017-08-03T10:23:02.941Z,23.00
2017-08-03T10:25:30.422Z,22.60
2017-08-03T10:27:57.928Z,22.30
2017-08-03T10:30:25.431Z,22.10
2017-08-03T10:32:53.768Z,22.00
2017-08-03T10:35:21.418Z,22.00
2017-08-03T10:37:49.744Z,21.90
2017-08-03T10:40:17.241Z,21.90
2017-08-03T10:42:44.824Z,21.70
2017-08-03T10:45:12.352Z,21.60
2017-08-03T10:47:40.760Z,21.70
2017-08-03T10:50:08.285Z,21.60
2017-08-03T10:52:35.768Z,21.70
2017-08-03T10:55:03.362Z,21.80
2017-08-03T10:57:30.913Z,21.80
2017-08-03T10:59:58.409Z,21.70
2017-08-03T11:02:26.000Z,21.70
2017-08-03T11:04:53.713Z,21.70
2017-08-03T11:07:22.572Z,21.70
2017-08-03T11:09:50.693Z,21.70
2017-08-03T11:12:18.206Z,21.80
2017-08-03T11:14:46.698Z,21.60
2017-08-03T11:17:14.291Z,21.60
2017-08-03T11:19:41.975Z,21.50
2017-08-03T11:22:09.528Z,21.30
2017-08-03T11:24:37.072Z,21.50
2017-08-03T11:27:04.639Z,22.00
2017-08-03T11:29:32.125Z,22.30
2017-08-03T11:32:00.421Z,24.20
2017-08-03T11:34:28.154Z,24.20
2017-08-03T11:36:56.249Z,25.00
2017-08-03T11:39:27.010Z,25.90
2017-08-03T11:41:57.713Z,25.90
2017-08-03T11:44:27.657Z,25.90
2017-08-03T11:46:55.865Z,25.60
2017-08-03T11:49:24.728Z,24.60
2017-08-03T11:51:54.516Z,24.50
2017-08-03T11:54:29.890Z,24.10
2017-08-03T11:56:58.833Z,23.80
2017-08-03T11:59:26.881Z,23.80
2017-08-03T12:01:56.790Z,24.50
2017-08-03T12:04:27.810Z,24.50
2017-08-03T12:07:01.081Z,24.10
2017-08-03T12:09:30.009Z,24.00
2017-08-03T12:11:59.259Z,24.90
2017-08-03T12:14:28.927Z,25.50
2017-08-03T12:17:00.247Z,26.60
2017-08-03T12:19:31.539Z,27.80
2017-08-03T12:22:10.396Z,27.60
2017-08-03T12:24:37.892Z,27.80
2017-08-03T12:27:05.445Z,28.20
2017-08-03T12:29:33.033Z,27.30
2017-08-03T12:32:02.628Z,27.00
2017-08-03T12:34:31.815Z,27.70
2017-08-03T12:36:59.890Z,27.10
2017-08-03T12:39:28.336Z,28.10
2017-08-03T12:41:56.402Z,29.00
2017-08-03T12:44:26.317Z,28.30
2017-08-03T12:46:58.788Z,28.50
2017-08-03T12:49:30.419Z,27.20
2017-08-03T12:52:08.985Z,27.00
2017-08-03T12:54:36.496Z,27.40
2017-08-03T12:57:05.477Z,27.60
2017-08-03T12:59:34.547Z,28.90
2017-08-03T13:02:03.250Z,27.80
2017-08-03T13:04:32.410Z,28.60
2017-08-03T13:07:00.962Z,28.20
2017-08-03T13:09:28.647Z,27.20
2017-08-03T13:12:02.266Z,27.90
2017-08-03T13:14:30.921Z,28.30
2017-08-03T13:16:59.523Z,28.40
2017-08-03T13:19:28.456Z,27.60
2017-08-03T13:21:57.112Z,27.60
2017-08-03T13:24:35.930Z,26.30
2017-08-03T13:27:03.545Z,25.80
2017-08-03T13:29:31.167Z,25.40
2017-08-03T13:31:58.845Z,25.60
2017-08-03T13:34:26.392Z,26.70
2017-08-03T13:36:54.059Z,27.50
2017-08-03T13:39:22.220Z,27.20
2017-08-03T13:41:49.849Z,26.30
2017-08-03T13:44:17.484Z,26.30
2017-08-03T13:46:44.960Z,26.20
2017-08-03T13:49:12.485Z,25.80
2017-08-03T13:51:40.001Z,25.80
2017-08-03T13:54:08.269Z,25.70
2017-08-03T13:56:35.812Z,25.70
2017-08-03T13:59:03.360Z,25.80
2017-08-03T14:01:30.932Z,26.00
2017-08-03T14:03:58.474Z,26.60
2017-08-03T14:06:26.001Z,27.00
2017-08-03T14:08:54.485Z,27.20
2017-08-03T14:11:22.866Z,26.60
2017-08-03T14:13:50.397Z,26.60
2017-08-03T14:16:18.741Z,26.70
2017-08-03T14:18:46.282Z,26.70
2017-08-03T14:21:13.845Z,26.60
2017-08-03T14:23:41.468Z,26.60
2017-08-03T14:26:09.017Z,26.30
2017-08-03T14:28:36.556Z,26.20
2017-08-03T14:31:04.058Z,26.40
2017-08-03T14:33:31.545Z,26.70
2017-08-03T14:35:59.288Z,26.90
2017-08-03T14:38:26.941Z,27.00
2017-08-03T14:40:54.600Z,26.90
2017-08-03T14:43:22.109Z,26.70
2017-08-03T14:45:49.801Z,26.40
2017-08-03T14:48:17.313Z,26.20
2017-08-03T14:50:45.125Z,25.90
2017-08-03T14:53:12.714Z,25.80
2017-08-03T14:55:40.249Z,25.90
2017-08-03T14:58:07.796Z,26.20
2017-08-03T15:00:35.443Z,26.50
2017-08-03T15:03:02.984Z,26.70
2017-08-03T15:05:30.524Z,26.90
2017-08-03T15:07:58.137Z,26.90
2017-08-03T15:10:25.954Z,26.80
2017-08-03T15:12:53.494Z,26.90
2017-08-03T15:15:21.481Z,26.80
2017-08-03T15:17:49.055Z,26.60
2017-08-03T15:20:17.333Z,26.60
2017-08-03T15:22:44.897Z,26.60
2017-08-03T15:25:13.733Z,27.00
2017-08-03T15:27:42.940Z,26.80
2017-08-03T15:30:11.056Z,26.80
2017-08-03T15:32:38.663Z,26.80
2017-08-03T15:35:06.184Z,27.00
2017-08-03T15:37:33.695Z,26.80
2017-08-03T15:40:01.989Z,26.20
2017-08-03T15:42:29.541Z,26.20
2017-08-03T15:44:57.065Z,26.40
2017-08-03T15:47:24.768Z,26.40
2017-08-03T15:49:52.376Z,26.70
2017-08-03T15:52:19.879Z,26.70
2017-08-03T15:54:48.169Z,26.50
2017-08-03T15:57:15.652Z,26.50
2017-08-03T15:59:43.252Z,26.60
2017-08-03T16:02:10.769Z,26.60
2017-08-03T16:04:39.056Z,26.40
2017-08-03T16:07:06.634Z,26.50
2017-08-03T16:09:34.152Z,26.40
2017-08-03T16:12:01.632Z,26.60
2017-08-03T16:14:29.232Z,26.50
2017-08-03T16:16:56.732Z,26.10
2017-08-03T16:19:24.502Z,26.00
2017-08-03T16:21:52.829Z,25.80
2017-08-03T16:24:20.471Z,25.80
2017-08-03T16:26:48.020Z,25.80
2017-08-03T16:29:15.630Z,25.60
2017-08-03T16:31:43.128Z,25.60
2017-08-03T16:34:10.608Z,25.60
2017-08-03T16:36:38.113Z,25.40
2017-08-03T16:39:06.417Z,25.40
2017-08-03T16:41:33.922Z,25.40
2017-08-03T16:44:01.409Z,25.40
2017-08-03T16:46:28.949Z,25.40
2017-08-03T16:48:56.460Z,25.20
2017-08-03T16:51:24.758Z,25.00
2017-08-03T16:53:52.418Z,25.00
2017-08-03T16:56:19.927Z,25.10
2017-08-03T16:58:48.200Z,25.00
2017-08-03T17:01:15.850Z,25.00
2017-08-03T17:03:43.423Z,24.90
2017-08-03T17:06:10.921Z,24.70
2017-08-03T17:08:38.412Z,24.70
2017-08-03T17:11:05.930Z,24.60
2017-08-03T17:13:33.421Z,24.50
2017-08-03T17:16:00.916Z,24.50
2017-08-03T17:18:28.392Z,24.50
2017-08-03T17:20:55.940Z,24.50
2017-08-03T17:23:23.426Z,24.40
2017-08-03T17:25:51.058Z,24.40
2017-08-03T17:28:18.577Z,24.30
2017-08-03T17:30:46.145Z,24.30
2017-08-03T17:33:13.665Z,24.20
2017-08-03T17:35:41.172Z,24.20
2017-08-03T17:38:09.568Z,24.00
2017-08-03T17:40:37.073Z,23.90
2017-08-03T17:43:04.646Z,23.90
2017-08-03T17:45:32.144Z,23.90
2017-08-03T17:47:59.740Z,23.90
2017-08-03T17:50:27.294Z,23.80
2017-08-03T17:52:54.928Z,23.80
2017-08-03T17:55:22.480Z,23.80
2017-08-03T17:57:50.029Z,23.70
2017-08-03T18:00:18.556Z,23.60
2017-08-03T18:02:46.801Z,23.60
2017-08-03T18:05:14.288Z,23.60
2017-08-03T18:07:41.780Z,23.60
2017-08-03T18:10:09.304Z,23.50
2017-08-03T18:12:36.813Z,23.50
2017-08-03T18:15:04.310Z,23.50
2017-08-03T18:17:31.844Z,23.40
2017-08-03T18:19:59.324Z,23.40
2017-08-03T18:22:26.925Z,23.30
2017-08-03T18:24:54.464Z,23.20
2017-08-03T18:27:22.035Z,23.20
2017-08-03T18:29:49.568Z,23.10
2017-08-03T18:32:17.086Z,23.10
2017-08-03T18:34:44.641Z,23.10
2017-08-03T18:37:13.162Z,22.90
2017-08-03T18:39:40.662Z,22.90
2017-08-03T18:42:08.156Z,22.80
2017-08-03T18:44:35.744Z,22.80
2017-08-03T18:47:03.296Z,22.80
2017-08-03T18:49:30.824Z,22.70
2017-08-03T18:51:58.381Z,22.70
2017-08-03T18:54:25.873Z,22.60
2017-08-03T18:56:54.179Z,22.50
2017-08-03T18:59:21.812Z,22.50
2017-08-03T19:01:49.352Z,22.40
2017-08-03T19:04:16.900Z,22.30
2017-08-03T19:06:44.441Z,22.30
2017-08-03T19:09:11.985Z,22.20
2017-08-03T19:11:39.469Z,22.10
2017-08-03T19:14:07.078Z,22.00
2017-08-03T19:16:34.624Z,21.90
2017-08-03T19:19:02.157Z,21.90
2017-08-03T19:21:29.708Z,21.80
2017-08-03T19:23:57.274Z,21.80
2017-08-03T19:26:27.513Z,21.80
2017-08-03T19:28:55.192Z,21.80
2017-08-03T19:31:22.867Z,21.70
2017-08-03T19:33:50.364Z,21.70
2017-08-03T19:36:17.880Z,21.70
2017-08-03T19:38:45.365Z,21.60
2017-08-03T19:41:13.645Z,21.40
2017-08-03T19:43:41.162Z,21.40
2017-08-03T19:46:09.478Z,21.20
2017-08-03T19:48:36.985Z,21.20
2017-08-03T19:51:04.488Z,21.20
2017-08-03T19:53:31.974Z,21.10
2017-08-03T19:55:59.547Z,21.10
2017-08-03T19:58:27.076Z,21.00
2017-08-03T20:00:54.589Z,21.00
2017-08-03T20:03:22.136Z,20.90
2017-08-03T20:05:50.416Z,20.80
2017-08-03T20:08:38.504Z,20.80
2017-08-03T20:11:11.784Z,20.80
2017-08-03T20:13:39.366Z,20.70
2017-08-03T20:16:06.861Z,20.70
2017-08-03T20:18:34.352Z,20.60
2017-08-03T20:21:01.917Z,20.60
2017-08-03T20:23:29.440Z,20.60
2017-08-03T20:25:56.939Z,20.50
2017-08-03T20:28:24.477Z,20.50
2017-08-03T20:30:52.030Z,20.40
2017-08-03T20:33:19.561Z,20.40
2017-08-03T20:35:47.106Z,20.30
2017-08-03T20:38:14.604Z,20.30
2017-08-03T20:40:42.084Z,20.20
2017-08-03T20:43:09.601Z,20.20
2017-08-03T20:45:38.027Z,20.20
2017-08-03T20:48:05.595Z,20.10
2017-08-03T20:50:33.121Z,20.10
2017-08-03T20:53:00.733Z,20.10
2017-08-03T20:55:28.212Z,20.00
2017-08-03T20:57:55.791Z,20.10
2017-08-03T21:00:23.378Z,20.00
2017-08-03T21:02:50.917Z,20.00
2017-08-03T21:05:18.484Z,20.00
2017-08-03T21:07:45.996Z,19.90
2017-08-03T21:10:13.550Z,19.90
2017-08-03T21:12:41.040Z,19.80
2017-08-03T21:15:08.589Z,19.80
2017-08-03T21:17:46.793Z,19.80
2017-08-03T21:20:15.121Z,19.70
2017-08-03T21:22:42.600Z,19.60
2017-08-03T21:25:10.908Z,19.50
2017-08-03T21:27:38.466Z,19.50
2017-08-03T21:30:05.975Z,19.50
2017-08-03T21:32:34.236Z,19.50
2017-08-03T21:35:02.659Z,19.50
2017-08-03T21:37:30.189Z,19.50
2017-08-03T21:39:57.727Z,19.40
2017-08-03T21:42:25.272Z,19.30
2017-08-03T21:44:52.753Z,19.30
2017-08-03T21:47:20.349Z,19.20
2017-08-03T21:49:48.046Z,19.20
2017-08-03T21:52:15.562Z,19.10
2017-08-03T21:54:43.114Z,19.10
2017-08-03T21:57:10.609Z,19.00
2017-08-03T21:59:38.895Z,19.10
2017-08-03T22:02:06.548Z,19.00
2017-08-03T22:04:34.096Z,19.00
2017-08-03T22:07:01.687Z,19.00
2017-08-03T22:09:30.823Z,19.10
2017-08-03T22:11:58.465Z,19.10
2017-08-03T22:14:25.989Z,19.10
2017-08-03T22:16:53.486Z,19.10
2017-08-03T22:19:21.078Z,19.00
2017-08-03T22:21:48.616Z,19.00
2017-08-03T22:24:16.171Z,19.00
2017-08-03T22:26:43.681Z,19.10
2017-08-03T22:29:11.970Z,19.20
2017-08-03T22:31:39.508Z,19.20
2017-08-03T22:34:07.008Z,19.20
2017-08-03T22:36:34.489Z,19.20
2017-08-03T22:39:02.051Z,19.30
2017-08-03T22:41:29.584Z,19.30
2017-08-03T22:43:57.090Z,19.30
2017-08-03T22:46:25.397Z,19.30
2017-08-03T22:48:52.933Z,19.20
2017-08-03T22:51:20.473Z,19.30
2017-08-03T22:53:47.995Z,19.30
2017-08-03T22:56:16.276Z,19.20
2017-08-03T22:58:43.920Z,19.20
2017-08-03T23:01:11.472Z,19.10
2017-08-03T23:03:39.016Z,19.10
2017-08-03T23:06:06.517Z,19.20
2017-08-03T23:08:34.037Z,19.20
2017-08-03T23:11:01.645Z,19.20
2017-08-03T23:13:29.310Z,19.20
2017-08-03T23:15:56.937Z,19.10
2017-08-03T23:18:24.650Z,19.10
2017-08-03T23:20:52.252Z,19.10
2017-08-03T23:23:19.797Z,19.10
2017-08-03T23:25:47.336Z,19.10
2017-08-03T23:28:14.879Z,19.10
2017-08-03T23:30:42.438Z,19.10
2017-08-03T23:33:09.998Z,19.20
2017-08-03T23:35:37.623Z,19.20
2017-08-03T23:38:05.160Z,19.20
2017-08-03T23:40:32.703Z,19.30
2017-08-03T23:43:00.213Z,19.20
2017-08-03T23:45:27.707Z,19.20
2017-08-03T23:47:55.240Z,19.20
2017-08-03T23:50:22.776Z,19.10
2017-08-03T23:52:50.321Z,19.10
2017-08-03T23:55:17.873Z,19.10
2017-08-03T23:57:45.382Z,19.10
